createdAt,value
2022-12-04T00:01:19.133Z,31.83
2022-12-04T00:03:46.552Z,31.08
2022-12-04T00:06:14.661Z,30.02
2022-12-04T00:08:41.848Z,34.72
2022-12-04T00:11:10.340Z,32.20
2022-12-04T00:13:38.154Z,26.80
2022-12-04T00:16:11.294Z,28.90
2022-12-04T00:18:38.092Z,30.05
2022-12-04T00:21:07.370Z,31.00
2022-12-04T00:23:34.643Z,24.92
2022-12-04T00:26:05.708Z,27.33
2022-12-04T00:28:32.982Z,30.60
2022-12-04T00:30:59.762Z,31.23
2022-12-04T00:33:26.679Z,30.38
2022-12-04T00:36:01.739Z,28.13
2022-12-04T00:38:28.887Z,28.17
2022-12-04T00:40:55.852Z,30.17
2022-12-04T00:43:23.507Z,31.80
2022-12-04T00:45:50.811Z,24.50
2022-12-04T00:48:17.521Z,26.35
2022-12-04T00:50:44.505Z,24.83
2022-12-04T00:53:12.032Z,27.30
2022-12-04T00:55:42.501Z,19.02
2022-12-04T00:58:10.540Z,22.35
2022-12-04T01:00:39.190Z,23.92
2022-12-04T01:03:06.937Z,25.92
2022-12-04T01:05:39.264Z,24.92
2022-12-04T01:08:06.024Z,24.42
2022-12-04T01:10:32.944Z,24.00
2022-12-04T01:12:59.600Z,27.08
2022-12-04T01:15:26.170Z,26.55
2022-12-04T01:17:52.806Z,24.02
2022-12-04T01:20:19.599Z,23.50
2022-12-04T01:22:46.196Z,19.02
2022-12-04T01:25:12.899Z,23.25
2022-12-04T01:27:39.609Z,21.48
2022-12-04T01:30:09.577Z,21.48
2022-12-04T01:32:36.175Z,26.27
2022-12-04T01:35:02.804Z,28.25
2022-12-04T01:37:33.923Z,22.42
2022-12-04T01:40:00.869Z,27.83
2022-12-04T01:42:27.835Z,23.65
2022-12-04T01:45:31.694Z,26.83
2022-12-04T01:48:09.108Z,33.00
2022-12-04T01:50:36.066Z,30.00
2022-12-04T01:53:02.881Z,29.15
2022-12-04T01:55:30.963Z,25.77
2022-12-04T01:57:58.790Z,30.83
2022-12-04T02:00:28.051Z,45.00
2022-12-04T02:02:55.900Z,31.77
2022-12-04T02:05:23.403Z,30.17
2022-12-04T02:07:53.169Z,25.65
2022-12-04T02:10:24.688Z,25.85
2022-12-04T02:13:14.122Z,35.67
2022-12-04T02:16:39.196Z,26.08
2022-12-04T02:19:33.519Z,31.45
2022-12-04T02:22:07.224Z,33.03
2022-12-04T02:25:18.671Z,21.13
2022-12-04T02:27:51.506Z,22.80
2022-12-04T02:30:18.507Z,37.85
2022-12-04T02:32:55.467Z,54.90
2022-12-04T02:35:29.133Z,36.55
2022-12-04T02:38:10.658Z,38.08
2022-12-04T02:40:48.908Z,24.23
2022-12-04T02:43:19.024Z,37.40
2022-12-04T02:45:51.954Z,43.85
2022-12-04T02:48:20.730Z,57.10
2022-12-04T02:50:51.281Z,23.98
2022-12-04T02:53:20.991Z,45.78
2022-12-04T02:55:54.219Z,31.42
2022-12-04T02:58:34.725Z,30.88
2022-12-04T03:01:03.368Z,29.63
2022-12-04T03:03:33.315Z,26.13
2022-12-04T03:06:07.885Z,22.77
2022-12-04T03:09:00.649Z,34.90
2022-12-04T03:11:32.039Z,20.10
2022-12-04T03:14:11.751Z,18.30
2022-12-04T03:16:41.866Z,30.75
2022-12-04T03:19:19.907Z,30.95
2022-12-04T03:21:51.182Z,34.80
2022-12-04T03:24:23.619Z,39.85
2022-12-04T03:26:57.680Z,34.75
2022-12-04T03:29:34.618Z,18.98
2022-12-04T03:32:08.389Z,41.75
2022-12-04T03:35:02.966Z,33.70
2022-12-04T03:37:59.973Z,47.75
2022-12-04T03:40:38.346Z,35.15
2022-12-04T03:43:32.098Z,37.72
2022-12-04T03:46:08.327Z,18.90
2022-12-04T03:48:59.355Z,31.27
2022-12-04T03:51:34.996Z,30.38
2022-12-04T03:54:11.919Z,36.20
2022-12-04T03:57:01.430Z,17.30
2022-12-04T03:59:35.246Z,44.35
2022-12-04T04:02:04.852Z,21.73
2022-12-04T04:04:36.509Z,30.70
2022-12-04T04:07:09.632Z,18.58
2022-12-04T04:09:41.652Z,21.75
2022-12-04T04:12:22.620Z,32.13
2022-12-04T04:15:11.629Z,28.67
2022-12-04T04:17:48.637Z,31.48
2022-12-04T04:20:42.028Z,63.00
2022-12-04T04:23:30.176Z,39.10
2022-12-04T04:26:03.096Z,25.23
2022-12-04T04:28:35.435Z,34.33
2022-12-04T04:31:11.364Z,40.42
2022-12-04T04:34:07.087Z,37.28
2022-12-04T04:36:36.842Z,28.02
2022-12-04T04:39:23.662Z,36.75
2022-12-04T04:41:56.964Z,30.95
2022-12-04T04:44:32.462Z,24.25
2022-12-04T04:47:04.232Z,57.92
2022-12-04T04:49:34.052Z,33.20
2022-12-04T04:52:01.223Z,45.97
2022-12-04T04:54:29.646Z,25.98
2022-12-04T04:56:56.280Z,33.25
2022-12-04T04:59:22.888Z,42.65
2022-12-04T05:01:49.799Z,26.73
2022-12-04T05:04:16.565Z,39.53
2022-12-04T05:06:43.104Z,38.17
2022-12-04T05:09:09.782Z,47.85
2022-12-04T05:11:36.475Z,29.40
2022-12-04T05:14:03.267Z,41.50
2022-12-04T05:16:30.055Z,36.25
2022-12-04T05:19:32.172Z,46.85
2022-12-04T05:21:58.842Z,21.63
2022-12-04T05:24:25.561Z,45.70
2022-12-04T05:26:52.175Z,29.80
2022-12-04T05:29:18.769Z,27.98
2022-12-04T05:31:45.456Z,46.45
2022-12-04T05:34:12.207Z,31.88
2022-12-04T05:36:38.892Z,58.72
2022-12-04T05:39:05.480Z,18.85
2022-12-04T05:41:35.259Z,24.88
2022-12-04T05:44:01.876Z,33.70
2022-12-04T05:46:28.537Z,32.10
2022-12-04T05:48:55.223Z,35.78
2022-12-04T05:51:21.850Z,47.08
2022-12-04T05:53:52.132Z,37.95
2022-12-04T05:56:18.764Z,30.73
2022-12-04T05:58:45.360Z,56.17
2022-12-04T06:01:23.460Z,35.90
2022-12-04T06:03:50.808Z,93.40
2022-12-04T06:06:22.246Z,54.97
2022-12-04T06:08:51.567Z,37.33
2022-12-04T06:11:24.795Z,52.67
2022-12-04T06:13:51.673Z,31.42
2022-12-04T06:16:19.859Z,45.05
2022-12-04T06:18:55.135Z,54.15
2022-12-04T06:21:23.259Z,44.53
2022-12-04T06:23:50.622Z,69.20
2022-12-04T06:26:17.780Z,43.45
2022-12-04T06:28:44.433Z,63.55
2022-12-04T06:31:14.060Z,32.90
2022-12-04T06:33:43.188Z,70.70
2022-12-04T06:36:15.886Z,53.28
2022-12-04T06:38:42.986Z,36.88
2022-12-04T06:41:12.552Z,52.97
2022-12-04T06:43:40.379Z,64.35
2022-12-04T06:46:22.391Z,47.67
2022-12-04T06:48:49.875Z,34.40
2022-12-04T06:51:24.788Z,26.65
2022-12-04T06:53:52.479Z,49.00
2022-12-04T06:56:25.531Z,46.35
2022-12-04T06:58:54.792Z,62.25
2022-12-04T07:01:27.217Z,41.00
2022-12-04T07:03:54.788Z,79.85
2022-12-04T07:06:25.506Z,57.75
2022-12-04T07:08:55.237Z,50.28
2022-12-04T07:11:22.626Z,61.00
2022-12-04T07:13:50.654Z,38.22
2022-12-04T07:16:20.629Z,26.60
2022-12-04T07:18:50.404Z,31.83
2022-12-04T07:21:19.290Z,64.15
2022-12-04T07:23:51.174Z,36.03
2022-12-04T07:26:18.706Z,40.28
2022-12-04T07:28:45.736Z,65.95
2022-12-04T07:31:15.417Z,43.90
2022-12-04T07:33:42.657Z,36.72
2022-12-04T07:36:13.081Z,33.28
2022-12-04T07:38:40.265Z,38.42
2022-12-04T07:41:08.221Z,35.78
2022-12-04T07:43:35.065Z,43.72
2022-12-04T07:46:07.379Z,28.23
2022-12-04T07:48:34.514Z,30.92
2022-12-04T07:51:09.622Z,49.67
2022-12-04T07:53:37.014Z,32.78
2022-12-04T07:56:05.587Z,27.25
2022-12-04T07:58:33.590Z,29.00
2022-12-04T08:01:12.505Z,36.20
2022-12-04T08:03:46.689Z,29.05
2022-12-04T08:06:14.290Z,33.75
2022-12-04T08:08:40.926Z,41.70
2022-12-04T08:11:09.587Z,35.33
2022-12-04T08:13:36.578Z,34.17
2022-12-04T08:16:05.247Z,33.67
2022-12-04T08:18:32.504Z,30.75
2022-12-04T08:21:14.044Z,29.63
2022-12-04T08:23:43.222Z,48.13
2022-12-04T08:26:11.644Z,37.53
2022-12-04T08:28:39.524Z,39.58
2022-12-04T08:31:11.873Z,40.53
2022-12-04T08:33:39.247Z,33.33
2022-12-04T08:36:07.618Z,39.17
2022-12-04T08:38:34.559Z,29.73
2022-12-04T08:41:06.393Z,35.22
2022-12-04T08:43:33.377Z,38.35
2022-12-04T08:46:02.255Z,37.65
2022-12-04T08:48:29.288Z,37.47
2022-12-04T08:50:56.076Z,37.08
2022-12-04T08:53:23.193Z,35.33
2022-12-04T08:55:50.669Z,37.03
2022-12-04T08:58:17.905Z,34.70
2022-12-04T09:00:44.624Z,42.53
2022-12-04T09:03:17.270Z,38.75
2022-12-04T09:05:46.001Z,39.72
2022-12-04T09:08:17.717Z,47.67
2022-12-04T09:10:44.976Z,44.20
2022-12-04T09:13:11.707Z,36.03
2022-12-04T09:15:40.161Z,43.22
2022-12-04T09:18:08.239Z,44.80
2022-12-04T09:20:35.302Z,44.22
2022-12-04T09:23:04.449Z,44.00
2022-12-04T09:25:34.802Z,37.75
2022-12-04T09:28:01.390Z,41.03
2022-12-04T09:30:28.002Z,47.65
2022-12-04T09:32:54.606Z,56.42
2022-12-04T09:35:21.258Z,56.17
2022-12-04T09:37:47.859Z,52.22
2022-12-04T09:40:35.519Z,57.22
2022-12-04T09:43:26.027Z,58.13
2022-12-04T09:45:58.848Z,54.40
2022-12-04T09:48:33.359Z,55.08
2022-12-04T09:53:34.700Z,55.58
2022-12-04T09:56:05.866Z,57.05
2022-12-04T09:58:50.848Z,67.07
2022-12-04T10:01:49.537Z,70.57
2022-12-04T10:04:17.355Z,49.25
2022-12-04T10:06:47.162Z,41.05
2022-12-04T10:09:30.022Z,40.53
2022-12-04T10:12:14.656Z,35.20
2022-12-04T10:15:03.258Z,47.92
2022-12-04T10:17:56.271Z,41.78
2022-12-04T10:20:44.389Z,37.15
2022-12-04T10:23:17.189Z,30.48
2022-12-04T10:25:43.891Z,27.00
2022-12-04T10:28:47.434Z,28.42
2022-12-04T10:31:17.512Z,33.90
2022-12-04T10:33:56.098Z,42.85
2022-12-04T10:36:30.439Z,55.03
2022-12-04T10:39:37.131Z,43.80
2022-12-04T10:42:35.850Z,44.03
2022-12-04T10:45:02.501Z,42.95
2022-12-04T10:47:29.231Z,75.68
2022-12-04T10:50:02.423Z,38.85
2022-12-04T10:52:29.096Z,61.20
2022-12-04T10:54:59.825Z,61.97
2022-12-04T10:57:44.224Z,75.07
2022-12-04T11:00:24.658Z,40.50
2022-12-04T11:02:52.635Z,56.53
2022-12-04T11:05:38.832Z,52.92
2022-12-04T11:08:07.772Z,29.65
2022-12-04T11:10:43.059Z,32.08
2022-12-04T11:13:12.799Z,34.42
2022-12-04T11:15:48.366Z,38.28
2022-12-04T11:18:46.300Z,38.85
2022-12-04T11:21:17.004Z,33.70
2022-12-04T11:23:46.163Z,34.58
2022-12-04T11:26:13.719Z,34.75
2022-12-04T11:28:45.658Z,29.00
2022-12-04T11:31:20.506Z,38.03
2022-12-04T11:33:48.987Z,35.88
2022-12-04T11:36:23.596Z,29.73
2022-12-04T11:38:53.404Z,36.38
2022-12-04T11:41:26.602Z,31.52
2022-12-04T11:43:59.369Z,30.77
2022-12-04T11:46:30.678Z,32.42
2022-12-04T11:48:57.711Z,30.33
2022-12-04T11:51:49.173Z,38.70
2022-12-04T11:54:21.950Z,34.08
2022-12-04T11:57:02.130Z,35.45
2022-12-04T11:59:47.572Z,28.58
2022-12-04T12:02:52.793Z,30.95
2022-12-04T12:05:56.822Z,29.83
2022-12-04T12:08:34.744Z,31.90
2022-12-04T12:11:16.628Z,26.85
2022-12-04T12:14:16.351Z,27.60
2022-12-04T12:19:27.797Z,37.55
2022-12-04T12:22:50.039Z,24.88
2022-12-04T12:25:22.012Z,26.05
2022-12-04T12:28:13.478Z,30.30
2022-12-04T12:31:08.693Z,23.13
2022-12-04T12:33:59.474Z,25.20
2022-12-04T12:36:31.678Z,16.10
2022-12-04T12:39:23.514Z,18.08
2022-12-04T12:41:56.337Z,16.33
2022-12-04T12:44:30.507Z,16.10
2022-12-04T12:47:04.138Z,12.82
2022-12-04T12:49:58.124Z,23.13
2022-12-04T12:52:31.789Z,28.92
2022-12-04T12:55:13.669Z,33.80
2022-12-04T12:57:44.291Z,29.60
2022-12-04T13:00:20.077Z,25.42
2022-12-04T13:02:58.204Z,25.33
2022-12-04T13:05:40.796Z,19.65
2022-12-04T13:08:20.293Z,15.43
2022-12-04T13:11:07.507Z,21.40
2022-12-04T13:13:39.313Z,35.65
2022-12-04T13:16:13.538Z,48.63
2022-12-04T13:18:46.349Z,30.83
2022-12-04T13:21:31.894Z,37.67
2022-12-04T13:24:19.971Z,16.52
2022-12-04T13:27:18.333Z,17.38
2022-12-04T13:30:06.843Z,14.45
2022-12-04T13:32:48.411Z,27.17
2022-12-04T13:35:21.093Z,33.55
2022-12-04T13:38:11.799Z,32.20
2022-12-04T13:40:45.240Z,24.73
2022-12-04T13:43:17.250Z,22.17
2022-12-04T13:45:49.231Z,22.77
2022-12-04T13:48:28.320Z,29.30
2022-12-04T13:51:04.455Z,31.42
2022-12-04T13:53:33.364Z,25.88
2022-12-04T13:56:04.561Z,24.15
2022-12-04T13:58:36.174Z,21.73
2022-12-04T14:01:04.381Z,19.25
2022-12-04T14:03:52.544Z,17.63
2022-12-04T14:06:38.648Z,15.95
2022-12-04T14:09:18.605Z,18.42
2022-12-04T14:11:48.107Z,20.30
2022-12-04T14:14:26.735Z,27.30
2022-12-04T14:16:54.785Z,18.77
2022-12-04T14:19:45.147Z,23.45
2022-12-04T14:22:35.362Z,22.15
2022-12-04T14:25:34.275Z,17.13
2022-12-04T14:28:13.627Z,21.92
2022-12-04T14:30:40.771Z,18.40
2022-12-04T14:33:21.284Z,16.58
2022-12-04T14:36:05.350Z,18.17
2022-12-04T14:38:32.892Z,15.32
2022-12-04T14:41:01.737Z,15.77
2022-12-04T14:43:35.494Z,10.40
2022-12-04T14:46:20.081Z,11.10
2022-12-04T14:49:00.563Z,32.13
2022-12-04T14:51:33.028Z,17.17
2022-12-04T14:54:41.626Z,20.58
2022-12-04T14:57:35.388Z,20.52
2022-12-04T15:00:05.240Z,22.83
2022-12-04T15:02:39.092Z,19.33
2022-12-04T15:05:11.322Z,20.90
2022-12-04T15:07:48.098Z,29.98
2022-12-04T15:10:40.955Z,28.25
2022-12-04T15:13:08.198Z,21.40
2022-12-04T15:15:35.179Z,26.98
2022-12-04T15:18:15.097Z,33.03
2022-12-04T15:20:51.303Z,19.02
2022-12-04T15:23:33.556Z,19.88
2022-12-04T15:26:11.848Z,17.27
2022-12-04T15:28:45.761Z,18.77
2022-12-04T15:31:17.489Z,21.58
2022-12-04T15:33:46.514Z,15.30
2022-12-04T15:36:18.583Z,18.05
2022-12-04T15:38:48.591Z,18.40
2022-12-04T15:41:34.070Z,24.13
2022-12-04T15:44:01.371Z,32.35
2022-12-04T15:46:38.418Z,24.98
2022-12-04T15:49:27.000Z,28.13
2022-12-04T15:52:23.095Z,22.63
2022-12-04T15:55:00.196Z,20.27
2022-12-04T15:57:34.520Z,21.38
2022-12-04T16:00:06.374Z,32.92
2022-12-04T16:02:39.617Z,27.17
2022-12-04T16:05:12.360Z,65.78
2022-12-04T16:07:52.999Z,44.42
2022-12-04T16:10:23.851Z,39.10
2022-12-04T16:12:59.427Z,21.42
2022-12-04T16:15:34.925Z,14.88
2022-12-04T16:18:06.090Z,24.42
2022-12-04T16:20:37.286Z,15.65
2022-12-04T16:23:04.842Z,26.65
2022-12-04T16:25:32.062Z,33.72
2022-12-04T16:27:59.774Z,34.38
2022-12-04T16:30:28.409Z,41.28
2022-12-04T16:32:55.094Z,40.33
2022-12-04T16:35:21.678Z,30.67
2022-12-04T16:37:48.424Z,23.52
2022-12-04T16:40:15.621Z,24.48
2022-12-04T16:42:42.778Z,24.13
2022-12-04T16:45:31.870Z,33.92
2022-12-04T16:47:58.586Z,30.60
2022-12-04T16:50:27.028Z,26.75
2022-12-04T16:52:54.147Z,28.88
2022-12-04T16:55:41.313Z,29.45
2022-12-04T16:58:08.341Z,21.35
2022-12-04T17:00:36.514Z,28.75
2022-12-04T17:03:04.520Z,21.50
2022-12-04T17:05:35.780Z,24.55
2022-12-04T17:08:03.888Z,29.05
2022-12-04T17:10:30.614Z,34.92
2022-12-04T17:12:57.294Z,33.33
2022-12-04T17:15:24.129Z,29.02
2022-12-04T17:17:51.163Z,25.58
2022-12-04T17:20:19.774Z,23.20
2022-12-04T17:22:46.426Z,26.85
2022-12-04T17:25:13.786Z,27.08
2022-12-04T17:27:40.610Z,20.40
2022-12-04T17:30:09.934Z,22.02
2022-12-04T17:32:36.977Z,24.40
2022-12-04T17:35:05.808Z,31.25
2022-12-04T17:37:33.659Z,31.67
2022-12-04T17:40:00.324Z,32.28
2022-12-04T17:42:27.878Z,38.40
2022-12-04T17:44:54.600Z,37.53
2022-12-04T17:47:21.503Z,18.15
2022-12-04T17:49:48.129Z,19.60
2022-12-04T17:52:14.986Z,17.40
2022-12-04T17:54:41.717Z,21.10
2022-12-04T17:57:08.367Z,26.70
2022-12-04T17:59:35.036Z,14.27
2022-12-04T18:02:04.085Z,14.55
2022-12-04T18:04:30.726Z,18.42
2022-12-04T18:06:57.417Z,18.85
2022-12-04T18:09:24.019Z,29.33
2022-12-04T18:11:50.793Z,39.78
2022-12-04T18:14:22.222Z,27.75
2022-12-04T18:16:53.283Z,20.58
2022-12-04T18:19:22.021Z,19.70
2022-12-04T18:21:49.082Z,33.42
2022-12-04T18:24:16.900Z,28.02
2022-12-04T18:26:46.059Z,18.05
2022-12-04T18:29:14.780Z,19.30
2022-12-04T18:31:41.890Z,12.95
2022-12-04T18:34:09.494Z,12.13
2022-12-04T18:36:40.002Z,71.25
2022-12-04T18:39:10.771Z,21.17
2022-12-04T18:41:37.656Z,27.25
2022-12-04T18:44:04.606Z,19.70
2022-12-04T18:46:31.534Z,16.52
2022-12-04T18:48:59.289Z,29.33
2022-12-04T18:51:27.321Z,33.50
2022-12-04T18:53:57.301Z,37.28
2022-12-04T18:56:24.365Z,26.80
2022-12-04T18:58:56.813Z,19.90
2022-12-04T19:01:23.573Z,19.67
2022-12-04T19:03:50.249Z,38.60
2022-12-04T19:06:16.945Z,19.15
2022-12-04T19:08:43.811Z,13.57
2022-12-04T19:11:13.159Z,14.75
2022-12-04T19:13:40.176Z,16.00
2022-12-04T19:16:17.440Z,11.35
2022-12-04T19:18:47.754Z,20.20
2022-12-04T19:21:16.233Z,18.17
2022-12-04T19:23:48.462Z,15.32
2022-12-04T19:26:15.268Z,15.02
2022-12-04T19:28:41.921Z,38.17
2022-12-04T19:31:35.929Z,69.47
2022-12-04T19:34:03.470Z,32.80
2022-12-04T19:36:31.429Z,15.07
2022-12-04T19:38:58.900Z,14.10
2022-12-04T19:41:30.252Z,14.35
2022-12-04T19:43:59.744Z,14.68
2022-12-04T19:46:30.561Z,16.83
2022-12-04T19:49:01.552Z,31.73
2022-12-04T19:51:29.000Z,31.25
2022-12-04T19:53:55.719Z,31.88
2022-12-04T19:56:25.221Z,40.67
2022-12-04T19:58:53.387Z,46.42
2022-12-04T20:01:24.783Z,25.73
2022-12-04T20:03:51.468Z,36.60
2022-12-04T20:06:21.259Z,60.97
2022-12-04T20:08:53.001Z,55.60
2022-12-04T20:11:19.853Z,66.90
2022-12-04T20:13:48.866Z,57.55
2022-12-04T20:16:18.445Z,70.38
2022-12-04T20:18:45.593Z,30.15
2022-12-04T20:21:13.664Z,20.73
2022-12-04T20:23:41.437Z,11.73
2022-12-04T20:26:09.989Z,18.33
2022-12-04T20:28:37.326Z,45.40
2022-12-04T20:31:18.748Z,70.07
2022-12-04T20:33:47.278Z,41.25
2022-12-04T20:36:15.675Z,68.70
2022-12-04T20:38:42.780Z,102.47
2022-12-04T20:41:13.377Z,86.32
2022-12-04T20:43:40.114Z,89.78
2022-12-04T20:46:18.419Z,75.38
2022-12-04T20:48:48.979Z,125.85
2022-12-04T20:51:23.744Z,130.52
2022-12-04T20:53:51.811Z,96.03
2022-12-04T20:56:19.587Z,92.00
2022-12-04T20:58:46.353Z,88.72
2022-12-04T21:01:18.732Z,52.30
2022-12-04T21:03:47.053Z,35.35
2022-12-04T21:06:16.905Z,19.95
2022-12-04T21:08:57.010Z,20.90
2022-12-04T21:11:25.952Z,31.92
2022-12-04T21:14:26.107Z,36.63
2022-12-04T21:16:52.787Z,14.40
2022-12-04T21:19:21.856Z,73.32
2022-12-04T21:21:49.082Z,77.82
2022-12-04T21:24:17.756Z,53.70
2022-12-04T21:26:44.958Z,64.00
2022-12-04T21:29:11.714Z,56.72
2022-12-04T21:31:39.194Z,57.60
2022-12-04T21:34:07.827Z,57.22
2022-12-04T21:36:34.750Z,50.83
2022-12-04T21:39:01.416Z,42.15
2022-12-04T21:41:46.589Z,45.20
2022-12-04T21:44:16.435Z,43.97
2022-12-04T21:46:44.517Z,32.70
2022-12-04T21:49:11.956Z,40.05
2022-12-04T21:54:27.689Z,30.88
2022-12-04T21:56:55.155Z,30.52
2022-12-04T21:59:22.061Z,29.55
2022-12-04T22:01:48.818Z,25.58
2022-12-04T22:04:15.746Z,33.33
2022-12-04T22:06:42.795Z,31.23
2022-12-04T22:09:11.640Z,26.13
2022-12-04T22:11:41.354Z,20.90
2022-12-04T22:14:09.218Z,20.42
2022-12-04T22:16:41.656Z,22.85
2022-12-04T22:19:09.857Z,19.58
2022-12-04T22:21:36.615Z,22.63
2022-12-04T22:24:04.200Z,23.17
2022-12-04T22:26:31.372Z,25.17
2022-12-04T22:28:58.130Z,23.13
2022-12-04T22:31:27.984Z,28.42
2022-12-04T22:33:56.280Z,27.60
2022-12-04T22:36:25.794Z,24.80
2022-12-04T22:39:08.680Z,25.55
2022-12-04T22:41:35.801Z,23.63
2022-12-04T22:44:02.410Z,26.77
2022-12-04T22:46:29.216Z,22.83
2022-12-04T22:48:55.933Z,25.15
2022-12-04T22:51:23.019Z,28.08
2022-12-04T22:53:55.596Z,28.27
2022-12-04T22:56:31.701Z,27.58
2022-12-04T22:58:59.190Z,45.60
2022-12-04T23:01:28.368Z,48.85
2022-12-04T23:03:55.334Z,53.75
2022-12-04T23:06:24.096Z,59.70
2022-12-04T23:08:55.623Z,53.13
2022-12-04T23:11:23.536Z,50.00
2022-12-04T23:13:52.871Z,47.20
2022-12-04T23:16:21.186Z,47.85
2022-12-04T23:18:48.356Z,42.53
2022-12-04T23:21:17.590Z,57.38
2022-12-04T23:23:46.131Z,44.95
2022-12-04T23:26:15.850Z,42.75
2022-12-04T23:28:42.848Z,63.80
2022-12-04T23:31:11.023Z,54.70
2022-12-04T23:33:38.637Z,51.47
2022-12-04T23:36:06.529Z,49.50
2022-12-04T23:38:38.006Z,60.95
2022-12-04T23:41:12.138Z,60.25
2022-12-04T23:43:39.545Z,75.65
2022-12-04T23:46:14.629Z,65.00
2022-12-04T23:48:43.107Z,67.57
2022-12-04T23:51:11.848Z,69.30
2022-12-04T23:53:39.088Z,67.18
2022-12-04T23:56:18.462Z,62.03
2022-12-04T23:58:46.999Z,61.38
